sensor_id;sensor_type;location;lat;lon;timestamp;P1;durP1;ratioP1;P2;durP2;ratioP2
7383;SDS011;3733;47.994;8.820;2023-12-07T00:00:06;22.90;;;11.23;;
7383;SDS011;3733;47.994;8.820;2023-12-07T00:02:31;22.53;;;12.53;;
7383;SDS011;3733;47.994;8.820;2023-12-07T00:04:58;21.90;;;11.00;;
7383;SDS011;3733;47.994;8.820;2023-12-07T00:07:24;22.73;;;12.00;;
7383;SDS011;3733;47.994;8.820;2023-12-07T00:09:49;23.07;;;12.63;;
7383;SDS011;3733;47.994;8.820;2023-12-07T00:12:15;20.67;;;11.57;;
7383;SDS011;3733;47.994;8.820;2023-12-07T00:14:40;23.97;;;13.50;;
7383;SDS011;3733;47.994;8.820;2023-12-07T00:17:06;22.03;;;12.20;;
7383;SDS011;3733;47.994;8.820;2023-12-07T00:19:32;18.07;;;11.63;;
7383;SDS011;3733;47.994;8.820;2023-12-07T00:21:57;25.87;;;14.10;;
7383;SDS011;3733;47.994;8.820;2023-12-07T00:24:23;22.83;;;11.90;;
7383;SDS011;3733;47.994;8.820;2023-12-07T00:26:49;21.83;;;11.67;;
7383;SDS011;3733;47.994;8.820;2023-12-07T00:29:14;21.07;;;11.33;;
7383;SDS011;3733;47.994;8.820;2023-12-07T00:31:40;22.40;;;12.60;;
7383;SDS011;3733;47.994;8.820;2023-12-07T00:34:06;17.77;;;11.90;;
7383;SDS011;3733;47.994;8.820;2023-12-07T00:36:31;26.20;;;14.30;;
7383;SDS011;3733;47.994;8.820;2023-12-07T00:38:57;28.17;;;13.43;;
7383;SDS011;3733;47.994;8.820;2023-12-07T00:41:23;22.53;;;12.57;;
7383;SDS011;3733;47.994;8.820;2023-12-07T00:43:48;24.33;;;11.77;;
7383;SDS011;3733;47.994;8.820;2023-12-07T00:46:14;18.40;;;11.03;;
7383;SDS011;3733;47.994;8.820;2023-12-07T00:48:40;20.00;;;12.57;;
7383;SDS011;3733;47.994;8.820;2023-12-07T00:51:05;22.10;;;11.00;;
7383;SDS011;3733;47.994;8.820;2023-12-07T00:53:31;20.03;;;11.17;;
7383;SDS011;3733;47.994;8.820;2023-12-07T00:55:57;20.77;;;11.67;;
7383;SDS011;3733;47.994;8.820;2023-12-07T00:58:22;20.57;;;12.07;;
7383;SDS011;3733;47.994;8.820;2023-12-07T01:00:48;20.70;;;10.93;;
7383;SDS011;3733;47.994;8.820;2023-12-07T01:03:14;21.90;;;11.90;;
7383;SDS011;3733;47.994;8.820;2023-12-07T01:05:39;22.13;;;11.77;;
7383;SDS011;3733;47.994;8.820;2023-12-07T01:08:05;21.73;;;11.10;;
7383;SDS011;3733;47.994;8.820;2023-12-07T01:10:31;15.73;;;9.23;;
7383;SDS011;3733;47.994;8.820;2023-12-07T01:12:57;17.40;;;10.67;;
7383;SDS011;3733;47.994;8.820;2023-12-07T01:15:23;19.27;;;10.90;;
7383;SDS011;3733;47.994;8.820;2023-12-07T01:17:48;20.10;;;10.90;;
7383;SDS011;3733;47.994;8.820;2023-12-07T01:20:14;25.30;;;10.57;;
7383;SDS011;3733;47.994;8.820;2023-12-07T01:22:40;19.00;;;11.00;;
7383;SDS011;3733;47.994;8.820;2023-12-07T01:25:10;22.00;;;11.40;;
7383;SDS011;3733;47.994;8.820;2023-12-07T01:27:36;18.83;;;10.53;;
7383;SDS011;3733;47.994;8.820;2023-12-07T01:30:02;17.13;;;10.27;;
7383;SDS011;3733;47.994;8.820;2023-12-07T01:32:28;16.77;;;10.50;;
7383;SDS011;3733;47.994;8.820;2023-12-07T01:34:54;17.43;;;10.33;;
7383;SDS011;3733;47.994;8.820;2023-12-07T01:37:20;16.73;;;10.27;;
7383;SDS011;3733;47.994;8.820;2023-12-07T01:39:46;20.47;;;11.20;;
7383;SDS011;3733;47.994;8.820;2023-12-07T01:42:11;18.60;;;10.10;;
7383;SDS011;3733;47.994;8.820;2023-12-07T01:44:37;20.07;;;10.00;;
7383;SDS011;3733;47.994;8.820;2023-12-07T01:47:04;18.23;;;11.00;;
7383;SDS011;3733;47.994;8.820;2023-12-07T01:49:31;19.37;;;11.73;;
7383;SDS011;3733;47.994;8.820;2023-12-07T01:51:57;21.80;;;11.23;;
7383;SDS011;3733;47.994;8.820;2023-12-07T01:54:23;19.30;;;11.27;;
7383;SDS011;3733;47.994;8.820;2023-12-07T01:56:50;23.73;;;11.00;;
7383;SDS011;3733;47.994;8.820;2023-12-07T01:59:16;19.97;;;11.00;;
7383;SDS011;3733;47.994;8.820;2023-12-07T02:01:42;16.53;;;10.33;;
7383;SDS011;3733;47.994;8.820;2023-12-07T02:04:09;17.60;;;9.83;;
7383;SDS011;3733;47.994;8.820;2023-12-07T02:06:35;19.47;;;10.47;;
7383;SDS011;3733;47.994;8.820;2023-12-07T02:09:00;23.10;;;10.83;;
7383;SDS011;3733;47.994;8.820;2023-12-07T02:11:27;17.83;;;9.67;;
7383;SDS011;3733;47.994;8.820;2023-12-07T02:13:52;18.73;;;11.53;;
7383;SDS011;3733;47.994;8.820;2023-12-07T02:19:10;21.80;;;11.63;;
7383;SDS011;3733;47.994;8.820;2023-12-07T02:21:58;15.07;;;9.23;;
7383;SDS011;3733;47.994;8.820;2023-12-07T02:24:27;22.53;;;11.27;;
7383;SDS011;3733;47.994;8.820;2023-12-07T02:26:58;22.97;;;11.27;;
7383;SDS011;3733;47.994;8.820;2023-12-07T02:29:24;26.10;;;12.23;;
7383;SDS011;3733;47.994;8.820;2023-12-07T02:31:49;20.57;;;11.00;;
7383;SDS011;3733;47.994;8.820;2023-12-07T02:34:15;22.33;;;12.47;;
7383;SDS011;3733;47.994;8.820;2023-12-07T02:36:41;24.60;;;12.40;;
7383;SDS011;3733;47.994;8.820;2023-12-07T02:39:10;25.37;;;12.57;;
7383;SDS011;3733;47.994;8.820;2023-12-07T02:41:37;31.10;;;15.47;;
7383;SDS011;3733;47.994;8.820;2023-12-07T02:44:04;26.90;;;13.53;;
7383;SDS011;3733;47.994;8.820;2023-12-07T02:46:30;23.47;;;13.33;;
7383;SDS011;3733;47.994;8.820;2023-12-07T02:48:57;25.40;;;13.13;;
7383;SDS011;3733;47.994;8.820;2023-12-07T02:51:23;30.03;;;15.17;;
7383;SDS011;3733;47.994;8.820;2023-12-07T02:53:49;28.87;;;14.53;;
7383;SDS011;3733;47.994;8.820;2023-12-07T02:56:14;29.53;;;14.37;;
7383;SDS011;3733;47.994;8.820;2023-12-07T02:58:40;31.57;;;13.53;;
7383;SDS011;3733;47.994;8.820;2023-12-07T03:01:05;25.47;;;13.23;;
7383;SDS011;3733;47.994;8.820;2023-12-07T03:03:31;25.93;;;13.70;;
7383;SDS011;3733;47.994;8.820;2023-12-07T03:05:57;24.90;;;13.00;;
7383;SDS011;3733;47.994;8.820;2023-12-07T03:08:22;29.67;;;14.70;;
7383;SDS011;3733;47.994;8.820;2023-12-07T03:10:48;28.10;;;14.03;;
7383;SDS011;3733;47.994;8.820;2023-12-07T03:13:13;24.97;;;13.63;;
7383;SDS011;3733;47.994;8.820;2023-12-07T03:15:39;29.57;;;14.70;;
7383;SDS011;3733;47.994;8.820;2023-12-07T03:18:05;31.93;;;15.07;;
7383;SDS011;3733;47.994;8.820;2023-12-07T03:20:30;31.50;;;15.57;;
7383;SDS011;3733;47.994;8.820;2023-12-07T03:22:56;26.60;;;14.83;;
7383;SDS011;3733;47.994;8.820;2023-12-07T03:25:22;30.60;;;15.90;;
7383;SDS011;3733;47.994;8.820;2023-12-07T03:27:47;31.57;;;15.20;;
7383;SDS011;3733;47.994;8.820;2023-12-07T03:30:13;29.93;;;15.80;;
7383;SDS011;3733;47.994;8.820;2023-12-07T03:32:38;32.00;;;15.00;;
7383;SDS011;3733;47.994;8.820;2023-12-07T03:35:04;34.07;;;15.53;;
7383;SDS011;3733;47.994;8.820;2023-12-07T03:37:30;36.87;;;17.20;;
7383;SDS011;3733;47.994;8.820;2023-12-07T03:39:56;59.93;;;24.07;;
7383;SDS011;3733;47.994;8.820;2023-12-07T03:42:21;55.57;;;23.03;;
7383;SDS011;3733;47.994;8.820;2023-12-07T03:44:47;46.83;;;19.70;;
7383;SDS011;3733;47.994;8.820;2023-12-07T03:47:12;48.97;;;20.30;;
7383;SDS011;3733;47.994;8.820;2023-12-07T03:49:38;51.93;;;20.70;;
7383;SDS011;3733;47.994;8.820;2023-12-07T03:52:06;55.73;;;19.70;;
7383;SDS011;3733;47.994;8.820;2023-12-07T03:54:31;48.20;;;20.40;;
7383;SDS011;3733;47.994;8.820;2023-12-07T03:56:57;55.50;;;20.60;;
7383;SDS011;3733;47.994;8.820;2023-12-07T03:59:23;55.53;;;20.77;;
7383;SDS011;3733;47.994;8.820;2023-12-07T04:01:48;48.93;;;20.27;;
7383;SDS011;3733;47.994;8.820;2023-12-07T04:04:14;59.37;;;21.63;;
7383;SDS011;3733;47.994;8.820;2023-12-07T04:06:40;55.60;;;22.80;;
7383;SDS011;3733;47.994;8.820;2023-12-07T04:09:05;50.77;;;21.10;;
7383;SDS011;3733;47.994;8.820;2023-12-07T04:11:31;55.27;;;22.53;;
7383;SDS011;3733;47.994;8.820;2023-12-07T04:13:56;53.30;;;21.30;;
7383;SDS011;3733;47.994;8.820;2023-12-07T04:16:22;48.90;;;19.57;;
7383;SDS011;3733;47.994;8.820;2023-12-07T04:18:48;50.80;;;20.60;;
7383;SDS011;3733;47.994;8.820;2023-12-07T04:21:14;51.70;;;19.97;;
7383;SDS011;3733;47.994;8.820;2023-12-07T04:23:39;51.53;;;21.23;;
7383;SDS011;3733;47.994;8.820;2023-12-07T04:26:05;53.33;;;20.33;;
7383;SDS011;3733;47.994;8.820;2023-12-07T04:28:30;49.13;;;19.83;;
7383;SDS011;3733;47.994;8.820;2023-12-07T04:30:56;55.77;;;20.70;;
7383;SDS011;3733;47.994;8.820;2023-12-07T04:33:21;47.73;;;20.27;;
7383;SDS011;3733;47.994;8.820;2023-12-07T04:35:47;48.70;;;18.53;;
7383;SDS011;3733;47.994;8.820;2023-12-07T04:38:13;43.40;;;17.07;;
7383;SDS011;3733;47.994;8.820;2023-12-07T04:40:38;51.00;;;19.53;;
7383;SDS011;3733;47.994;8.820;2023-12-07T04:43:04;145.43;;;20.40;;
7383;SDS011;3733;47.994;8.820;2023-12-07T04:45:29;125.30;;;19.93;;
7383;SDS011;3733;47.994;8.820;2023-12-07T04:47:55;88.30;;;20.43;;
7383;SDS011;3733;47.994;8.820;2023-12-07T04:50:22;65.70;;;18.47;;
7383;SDS011;3733;47.994;8.820;2023-12-07T04:52:48;127.30;;;20.00;;
7383;SDS011;3733;47.994;8.820;2023-12-07T04:55:14;52.57;;;16.90;;
7383;SDS011;3733;47.994;8.820;2023-12-07T04:57:41;34.23;;;14.97;;
7383;SDS011;3733;47.994;8.820;2023-12-07T05:00:06;58.53;;;16.43;;
7383;SDS011;3733;47.994;8.820;2023-12-07T05:02:34;41.73;;;14.90;;
7383;SDS011;3733;47.994;8.820;2023-12-07T05:05:00;41.70;;;13.63;;
7383;SDS011;3733;47.994;8.820;2023-12-07T05:07:25;93.87;;;16.60;;
7383;SDS011;3733;47.994;8.820;2023-12-07T05:09:51;153.17;;;16.10;;
7383;SDS011;3733;47.994;8.820;2023-12-07T05:12:17;82.90;;;15.27;;
7383;SDS011;3733;47.994;8.820;2023-12-07T05:14:43;39.70;;;14.73;;
7383;SDS011;3733;47.994;8.820;2023-12-07T05:17:08;46.67;;;13.37;;
7383;SDS011;3733;47.994;8.820;2023-12-07T05:19:34;31.57;;;13.30;;
7383;SDS011;3733;47.994;8.820;2023-12-07T05:22:00;59.83;;;15.30;;
7383;SDS011;3733;47.994;8.820;2023-12-07T05:24:25;33.47;;;12.50;;
7383;SDS011;3733;47.994;8.820;2023-12-07T05:26:51;45.13;;;14.50;;
7383;SDS011;3733;47.994;8.820;2023-12-07T05:29:17;161.03;;;17.67;;
7383;SDS011;3733;47.994;8.820;2023-12-07T05:31:42;129.70;;;14.43;;
7383;SDS011;3733;47.994;8.820;2023-12-07T05:34:08;56.47;;;14.53;;
7383;SDS011;3733;47.994;8.820;2023-12-07T05:36:33;37.70;;;12.43;;
7383;SDS011;3733;47.994;8.820;2023-12-07T05:38:59;36.07;;;13.03;;
7383;SDS011;3733;47.994;8.820;2023-12-07T05:41:24;57.10;;;11.87;;
7383;SDS011;3733;47.994;8.820;2023-12-07T05:43:50;35.77;;;12.23;;
7383;SDS011;3733;47.994;8.820;2023-12-07T05:46:17;40.93;;;12.60;;
7383;SDS011;3733;47.994;8.820;2023-12-07T05:48:43;27.83;;;12.50;;
7383;SDS011;3733;47.994;8.820;2023-12-07T05:51:16;36.37;;;12.13;;
7383;SDS011;3733;47.994;8.820;2023-12-07T05:53:42;31.40;;;12.03;;
7383;SDS011;3733;47.994;8.820;2023-12-07T05:56:08;74.30;;;11.93;;
7383;SDS011;3733;47.994;8.820;2023-12-07T05:58:35;43.67;;;11.17;;
7383;SDS011;3733;47.994;8.820;2023-12-07T06:01:01;34.97;;;11.00;;
7383;SDS011;3733;47.994;8.820;2023-12-07T06:03:27;49.27;;;12.10;;
7383;SDS011;3733;47.994;8.820;2023-12-07T06:05:57;43.47;;;12.17;;
7383;SDS011;3733;47.994;8.820;2023-12-07T06:08:22;36.87;;;13.27;;
7383;SDS011;3733;47.994;8.820;2023-12-07T06:10:48;58.67;;;13.87;;
7383;SDS011;3733;47.994;8.820;2023-12-07T06:13:14;59.33;;;15.60;;
7383;SDS011;3733;47.994;8.820;2023-12-07T06:15:39;40.60;;;15.30;;
7383;SDS011;3733;47.994;8.820;2023-12-07T06:18:05;49.47;;;14.80;;
7383;SDS011;3733;47.994;8.820;2023-12-07T06:20:31;43.00;;;13.90;;
7383;SDS011;3733;47.994;8.820;2023-12-07T06:22:57;80.23;;;14.60;;
7383;SDS011;3733;47.994;8.820;2023-12-07T06:25:23;47.80;;;12.80;;
7383;SDS011;3733;47.994;8.820;2023-12-07T06:27:49;61.60;;;11.83;;
7383;SDS011;3733;47.994;8.820;2023-12-07T06:30:15;48.77;;;12.57;;
7383;SDS011;3733;47.994;8.820;2023-12-07T06:32:40;44.93;;;13.40;;
7383;SDS011;3733;47.994;8.820;2023-12-07T06:35:06;49.33;;;14.90;;
7383;SDS011;3733;47.994;8.820;2023-12-07T06:37:32;67.90;;;13.43;;
7383;SDS011;3733;47.994;8.820;2023-12-07T06:39:58;36.47;;;11.30;;
7383;SDS011;3733;47.994;8.820;2023-12-07T06:42:25;25.50;;;10.60;;
7383;SDS011;3733;47.994;8.820;2023-12-07T06:44:53;21.40;;;8.77;;
7383;SDS011;3733;47.994;8.820;2023-12-07T06:47:19;33.50;;;11.10;;
7383;SDS011;3733;47.994;8.820;2023-12-07T06:49:44;28.57;;;11.00;;
7383;SDS011;3733;47.994;8.820;2023-12-07T06:52:13;19.90;;;9.60;;
7383;SDS011;3733;47.994;8.820;2023-12-07T06:54:38;59.90;;;10.97;;
7383;SDS011;3733;47.994;8.820;2023-12-07T06:57:04;74.70;;;11.60;;
7383;SDS011;3733;47.994;8.820;2023-12-07T06:59:33;103.77;;;13.33;;
7383;SDS011;3733;47.994;8.820;2023-12-07T07:01:59;27.50;;;10.73;;
7383;SDS011;3733;47.994;8.820;2023-12-07T07:04:25;24.23;;;10.43;;
7383;SDS011;3733;47.994;8.820;2023-12-07T07:06:51;112.93;;;13.13;;
7383;SDS011;3733;47.994;8.820;2023-12-07T07:09:17;57.00;;;11.63;;
7383;SDS011;3733;47.994;8.820;2023-12-07T07:11:47;44.77;;;11.20;;
7383;SDS011;3733;47.994;8.820;2023-12-07T07:14:13;52.90;;;11.43;;
7383;SDS011;3733;47.994;8.820;2023-12-07T07:16:39;55.33;;;12.27;;
7383;SDS011;3733;47.994;8.820;2023-12-07T07:19:05;68.80;;;11.83;;
7383;SDS011;3733;47.994;8.820;2023-12-07T07:21:31;67.27;;;11.10;;
7383;SDS011;3733;47.994;8.820;2023-12-07T07:23:56;35.67;;;10.87;;
7383;SDS011;3733;47.994;8.820;2023-12-07T07:26:22;63.17;;;12.60;;
7383;SDS011;3733;47.994;8.820;2023-12-07T07:28:50;45.30;;;13.20;;
7383;SDS011;3733;47.994;8.820;2023-12-07T07:31:16;61.10;;;12.43;;
7383;SDS011;3733;47.994;8.820;2023-12-07T07:33:43;34.60;;;10.50;;
7383;SDS011;3733;47.994;8.820;2023-12-07T07:36:08;38.43;;;10.03;;
7383;SDS011;3733;47.994;8.820;2023-12-07T07:38:36;27.23;;;10.40;;
7383;SDS011;3733;47.994;8.820;2023-12-07T07:41:02;40.33;;;11.40;;
7383;SDS011;3733;47.994;8.820;2023-12-07T07:43:27;31.33;;;12.03;;
7383;SDS011;3733;47.994;8.820;2023-12-07T07:45:53;26.67;;;10.00;;
7383;SDS011;3733;47.994;8.820;2023-12-07T07:48:19;76.50;;;11.47;;
7383;SDS011;3733;47.994;8.820;2023-12-07T07:50:44;49.37;;;11.30;;
7383;SDS011;3733;47.994;8.820;2023-12-07T07:53:10;42.80;;;11.90;;
7383;SDS011;3733;47.994;8.820;2023-12-07T07:55:35;87.17;;;13.33;;
7383;SDS011;3733;47.994;8.820;2023-12-07T07:58:01;38.40;;;13.97;;
7383;SDS011;3733;47.994;8.820;2023-12-07T08:00:27;21.90;;;8.93;;
7383;SDS011;3733;47.994;8.820;2023-12-07T08:02:53;22.17;;;8.97;;
7383;SDS011;3733;47.994;8.820;2023-12-07T08:05:19;26.90;;;10.97;;
7383;SDS011;3733;47.994;8.820;2023-12-07T08:07:44;25.63;;;9.17;;
7383;SDS011;3733;47.994;8.820;2023-12-07T08:10:10;17.80;;;8.77;;
7383;SDS011;3733;47.994;8.820;2023-12-07T08:12:36;17.13;;;8.90;;
7383;SDS011;3733;47.994;8.820;2023-12-07T08:15:04;22.13;;;9.33;;
7383;SDS011;3733;47.994;8.820;2023-12-07T08:17:30;27.50;;;11.20;;
7383;SDS011;3733;47.994;8.820;2023-12-07T08:19:55;26.47;;;12.07;;
7383;SDS011;3733;47.994;8.820;2023-12-07T08:22:24;31.00;;;11.87;;
7383;SDS011;3733;47.994;8.820;2023-12-07T08:24:49;28.80;;;11.67;;
7383;SDS011;3733;47.994;8.820;2023-12-07T08:27:15;33.27;;;13.17;;
7383;SDS011;3733;47.994;8.820;2023-12-07T08:29:40;39.73;;;12.97;;
7383;SDS011;3733;47.994;8.820;2023-12-07T08:32:06;30.43;;;12.20;;
7383;SDS011;3733;47.994;8.820;2023-12-07T08:34:32;30.60;;;12.97;;
7383;SDS011;3733;47.994;8.820;2023-12-07T08:36:57;37.07;;;13.37;;
7383;SDS011;3733;47.994;8.820;2023-12-07T08:39:23;30.80;;;10.80;;
7383;SDS011;3733;47.994;8.820;2023-12-07T08:41:50;17.20;;;8.90;;
7383;SDS011;3733;47.994;8.820;2023-12-07T08:44:16;16.53;;;8.30;;
7383;SDS011;3733;47.994;8.820;2023-12-07T08:46:42;19.23;;;8.53;;
7383;SDS011;3733;47.994;8.820;2023-12-07T08:49:10;19.67;;;9.47;;
7383;SDS011;3733;47.994;8.820;2023-12-07T08:51:36;17.93;;;8.37;;
7383;SDS011;3733;47.994;8.820;2023-12-07T08:54:01;16.40;;;9.10;;
7383;SDS011;3733;47.994;8.820;2023-12-07T08:56:27;17.87;;;8.40;;
7383;SDS011;3733;47.994;8.820;2023-12-07T08:58:52;20.20;;;9.20;;
7383;SDS011;3733;47.994;8.820;2023-12-07T09:01:18;20.20;;;9.77;;
7383;SDS011;3733;47.994;8.820;2023-12-07T09:03:44;19.57;;;9.60;;
7383;SDS011;3733;47.994;8.820;2023-12-07T09:06:09;19.03;;;9.00;;
7383;SDS011;3733;47.994;8.820;2023-12-07T09:08:35;17.83;;;9.23;;
7383;SDS011;3733;47.994;8.820;2023-12-07T09:11:00;25.63;;;9.67;;
7383;SDS011;3733;47.994;8.820;2023-12-07T09:13:26;25.60;;;10.13;;
7383;SDS011;3733;47.994;8.820;2023-12-07T09:15:53;14.77;;;8.70;;
7383;SDS011;3733;47.994;8.820;2023-12-07T09:18:18;17.97;;;9.20;;
7383;SDS011;3733;47.994;8.820;2023-12-07T09:20:44;20.97;;;9.43;;
7383;SDS011;3733;47.994;8.820;2023-12-07T09:23:12;19.50;;;10.67;;
7383;SDS011;3733;47.994;8.820;2023-12-07T09:25:40;17.53;;;9.80;;
7383;SDS011;3733;47.994;8.820;2023-12-07T09:28:05;20.43;;;9.60;;
7383;SDS011;3733;47.994;8.820;2023-12-07T09:30:31;18.97;;;10.10;;
7383;SDS011;3733;47.994;8.820;2023-12-07T09:32:58;21.07;;;10.53;;
7383;SDS011;3733;47.994;8.820;2023-12-07T09:35:24;19.07;;;8.90;;
7383;SDS011;3733;47.994;8.820;2023-12-07T09:37:50;18.13;;;9.63;;
7383;SDS011;3733;47.994;8.820;2023-12-07T09:40:16;27.30;;;10.10;;
7383;SDS011;3733;47.994;8.820;2023-12-07T09:42:43;27.00;;;11.83;;
7383;SDS011;3733;47.994;8.820;2023-12-07T09:45:09;19.50;;;9.40;;
7383;SDS011;3733;47.994;8.820;2023-12-07T09:47:36;30.43;;;11.00;;
7383;SDS011;3733;47.994;8.820;2023-12-07T09:50:12;21.80;;;10.60;;
7383;SDS011;3733;47.994;8.820;2023-12-07T09:52:41;29.60;;;11.50;;
7383;SDS011;3733;47.994;8.820;2023-12-07T09:55:07;36.70;;;14.30;;
7383;SDS011;3733;47.994;8.820;2023-12-07T09:57:34;38.00;;;13.27;;
7383;SDS011;3733;47.994;8.820;2023-12-07T10:00:01;33.43;;;14.10;;
7383;SDS011;3733;47.994;8.820;2023-12-07T10:02:27;46.57;;;14.53;;
7383;SDS011;3733;47.994;8.820;2023-12-07T10:05:03;26.17;;;12.17;;
7383;SDS011;3733;47.994;8.820;2023-12-07T10:07:35;28.13;;;12.43;;
7383;SDS011;3733;47.994;8.820;2023-12-07T10:10:02;30.33;;;12.87;;
7383;SDS011;3733;47.994;8.820;2023-12-07T10:12:33;26.80;;;12.33;;
7383;SDS011;3733;47.994;8.820;2023-12-07T10:15:00;31.77;;;13.17;;
7383;SDS011;3733;47.994;8.820;2023-12-07T10:17:47;35.87;;;13.80;;
7383;SDS011;3733;47.994;8.820;2023-12-07T10:20:17;45.37;;;16.40;;
7383;SDS011;3733;47.994;8.820;2023-12-07T10:22:45;34.50;;;10.30;;
7383;SDS011;3733;47.994;8.820;2023-12-07T10:25:11;40.23;;;13.03;;
7383;SDS011;3733;47.994;8.820;2023-12-07T10:27:38;44.77;;;17.80;;
7383;SDS011;3733;47.994;8.820;2023-12-07T10:30:06;47.90;;;17.60;;
7383;SDS011;3733;47.994;8.820;2023-12-07T10:32:36;51.70;;;17.17;;
7383;SDS011;3733;47.994;8.820;2023-12-07T10:35:04;98.83;;;16.37;;
7383;SDS011;3733;47.994;8.820;2023-12-07T10:37:32;29.83;;;12.00;;
7383;SDS011;3733;47.994;8.820;2023-12-07T10:39:57;129.20;;;13.80;;
7383;SDS011;3733;47.994;8.820;2023-12-07T10:42:24;56.17;;;13.37;;
7383;SDS011;3733;47.994;8.820;2023-12-07T10:44:50;35.67;;;11.00;;
7383;SDS011;3733;47.994;8.820;2023-12-07T10:47:22;64.03;;;9.80;;
7383;SDS011;3733;47.994;8.820;2023-12-07T10:49:50;36.03;;;8.60;;
7383;SDS011;3733;47.994;8.820;2023-12-07T10:52:20;21.67;;;10.00;;
7383;SDS011;3733;47.994;8.820;2023-12-07T10:57:36;25.30;;;10.80;;
7383;SDS011;3733;47.994;8.820;2023-12-07T11:00:02;23.77;;;9.97;;
7383;SDS011;3733;47.994;8.820;2023-12-07T11:02:29;27.23;;;9.20;;
7383;SDS011;3733;47.994;8.820;2023-12-07T11:04:55;18.90;;;8.83;;
7383;SDS011;3733;47.994;8.820;2023-12-07T11:07:22;20.33;;;9.40;;
7383;SDS011;3733;47.994;8.820;2023-12-07T11:09:58;34.23;;;9.97;;
7383;SDS011;3733;47.994;8.820;2023-12-07T11:12:36;18.93;;;9.70;;
7383;SDS011;3733;47.994;8.820;2023-12-07T11:15:11;15.90;;;8.13;;
7383;SDS011;3733;47.994;8.820;2023-12-07T11:17:50;15.07;;;8.27;;
7383;SDS011;3733;47.994;8.820;2023-12-07T11:20:22;19.37;;;8.53;;
7383;SDS011;3733;47.994;8.820;2023-12-07T11:22:59;23.00;;;11.07;;
7383;SDS011;3733;47.994;8.820;2023-12-07T11:25:24;22.17;;;10.40;;
7383;SDS011;3733;47.994;8.820;2023-12-07T11:27:59;21.00;;;10.90;;
7383;SDS011;3733;47.994;8.820;2023-12-07T11:30:27;22.93;;;10.60;;
7383;SDS011;3733;47.994;8.820;2023-12-07T11:32:55;15.77;;;9.40;;
7383;SDS011;3733;47.994;8.820;2023-12-07T11:35:20;19.20;;;10.43;;
7383;SDS011;3733;47.994;8.820;2023-12-07T11:40:42;19.53;;;10.60;;
7383;SDS011;3733;47.994;8.820;2023-12-07T11:43:16;19.37;;;10.33;;
7383;SDS011;3733;47.994;8.820;2023-12-07T11:45:57;16.83;;;9.30;;
7383;SDS011;3733;47.994;8.820;2023-12-07T11:48:23;15.90;;;8.17;;
7383;SDS011;3733;47.994;8.820;2023-12-07T11:53:31;14.70;;;7.90;;
7383;SDS011;3733;47.994;8.820;2023-12-07T11:55:58;14.20;;;8.73;;
7383;SDS011;3733;47.994;8.820;2023-12-07T11:58:25;14.30;;;7.60;;
7383;SDS011;3733;47.994;8.820;2023-12-07T12:00:55;15.20;;;8.13;;
7383;SDS011;3733;47.994;8.820;2023-12-07T12:03:21;14.70;;;8.27;;
7383;SDS011;3733;47.994;8.820;2023-12-07T12:05:48;15.47;;;7.87;;
7383;SDS011;3733;47.994;8.820;2023-12-07T12:08:13;16.03;;;8.30;;
7383;SDS011;3733;47.994;8.820;2023-12-07T12:10:41;15.40;;;9.33;;
7383;SDS011;3733;47.994;8.820;2023-12-07T12:13:09;18.20;;;9.57;;
7383;SDS011;3733;47.994;8.820;2023-12-07T12:15:35;15.87;;;9.67;;
7383;SDS011;3733;47.994;8.820;2023-12-07T12:18:02;19.27;;;10.50;;
7383;SDS011;3733;47.994;8.820;2023-12-07T12:20:28;18.53;;;10.90;;
7383;SDS011;3733;47.994;8.820;2023-12-07T12:22:54;16.67;;;9.00;;
7383;SDS011;3733;47.994;8.820;2023-12-07T12:25:29;19.00;;;10.30;;
7383;SDS011;3733;47.994;8.820;2023-12-07T12:27:56;19.63;;;9.90;;
7383;SDS011;3733;47.994;8.820;2023-12-07T12:30:29;19.87;;;9.07;;
7383;SDS011;3733;47.994;8.820;2023-12-07T12:32:55;14.03;;;8.60;;
7383;SDS011;3733;47.994;8.820;2023-12-07T12:35:21;16.00;;;9.40;;
7383;SDS011;3733;47.994;8.820;2023-12-07T12:37:48;15.07;;;9.30;;
7383;SDS011;3733;47.994;8.820;2023-12-07T12:40:18;13.37;;;8.40;;
7383;SDS011;3733;47.994;8.820;2023-12-07T12:42:45;13.10;;;7.80;;
7383;SDS011;3733;47.994;8.820;2023-12-07T12:45:14;13.60;;;8.77;;
7383;SDS011;3733;47.994;8.820;2023-12-07T12:47:41;13.47;;;8.00;;
7383;SDS011;3733;47.994;8.820;2023-12-07T12:50:08;11.67;;;6.90;;
7383;SDS011;3733;47.994;8.820;2023-12-07T12:52:35;9.00;;;5.97;;
7383;SDS011;3733;47.994;8.820;2023-12-07T12:55:02;12.30;;;6.77;;
7383;SDS011;3733;47.994;8.820;2023-12-07T12:57:31;9.70;;;6.20;;
7383;SDS011;3733;47.994;8.820;2023-12-07T12:59:57;11.77;;;6.73;;
7383;SDS011;3733;47.994;8.820;2023-12-07T13:02:26;13.00;;;7.10;;
7383;SDS011;3733;47.994;8.820;2023-12-07T13:04:52;11.10;;;6.70;;
7383;SDS011;3733;47.994;8.820;2023-12-07T13:07:18;10.37;;;6.70;;
7383;SDS011;3733;47.994;8.820;2023-12-07T13:09:44;10.63;;;6.37;;
7383;SDS011;3733;47.994;8.820;2023-12-07T13:12:10;11.13;;;7.17;;
7383;SDS011;3733;47.994;8.820;2023-12-07T13:14:35;10.27;;;7.07;;
7383;SDS011;3733;47.994;8.820;2023-12-07T13:17:06;9.50;;;6.50;;
7383;SDS011;3733;47.994;8.820;2023-12-07T13:19:32;10.10;;;7.80;;
7383;SDS011;3733;47.994;8.820;2023-12-07T13:21:58;9.90;;;7.10;;
7383;SDS011;3733;47.994;8.820;2023-12-07T13:24:24;10.53;;;7.37;;
7383;SDS011;3733;47.994;8.820;2023-12-07T13:26:50;15.20;;;7.30;;
7383;SDS011;3733;47.994;8.820;2023-12-07T13:29:15;15.30;;;7.70;;
7383;SDS011;3733;47.994;8.820;2023-12-07T13:31:41;9.30;;;7.47;;
7383;SDS011;3733;47.994;8.820;2023-12-07T13:34:07;10.90;;;6.90;;
7383;SDS011;3733;47.994;8.820;2023-12-07T13:36:33;10.87;;;7.40;;
7383;SDS011;3733;47.994;8.820;2023-12-07T13:39:00;12.20;;;7.33;;
7383;SDS011;3733;47.994;8.820;2023-12-07T13:41:29;9.80;;;7.33;;
7383;SDS011;3733;47.994;8.820;2023-12-07T13:43:54;11.53;;;6.97;;
7383;SDS011;3733;47.994;8.820;2023-12-07T13:46:20;11.70;;;7.20;;
7383;SDS011;3733;47.994;8.820;2023-12-07T13:48:46;13.90;;;7.43;;
7383;SDS011;3733;47.994;8.820;2023-12-07T13:51:12;10.67;;;7.13;;
7383;SDS011;3733;47.994;8.820;2023-12-07T13:53:37;11.70;;;8.00;;
7383;SDS011;3733;47.994;8.820;2023-12-07T13:56:04;10.83;;;6.83;;
7383;SDS011;3733;47.994;8.820;2023-12-07T13:58:30;12.47;;;8.20;;
7383;SDS011;3733;47.994;8.820;2023-12-07T14:00:56;13.17;;;8.60;;
7383;SDS011;3733;47.994;8.820;2023-12-07T14:03:21;10.63;;;6.90;;
7383;SDS011;3733;47.994;8.820;2023-12-07T14:05:48;14.60;;;8.00;;
7383;SDS011;3733;47.994;8.820;2023-12-07T14:08:14;22.87;;;8.67;;
7383;SDS011;3733;47.994;8.820;2023-12-07T14:10:39;16.30;;;9.70;;
7383;SDS011;3733;47.994;8.820;2023-12-07T14:13:05;22.20;;;9.80;;
7383;SDS011;3733;47.994;8.820;2023-12-07T14:15:30;25.30;;;11.13;;
7383;SDS011;3733;47.994;8.820;2023-12-07T14:18:00;24.03;;;10.57;;
7383;SDS011;3733;47.994;8.820;2023-12-07T14:20:26;17.70;;;10.67;;
7383;SDS011;3733;47.994;8.820;2023-12-07T14:22:53;14.63;;;9.00;;
7383;SDS011;3733;47.994;8.820;2023-12-07T14:25:20;13.87;;;8.60;;
7383;SDS011;3733;47.994;8.820;2023-12-07T14:27:45;17.30;;;7.90;;
7383;SDS011;3733;47.994;8.820;2023-12-07T14:30:11;11.60;;;7.90;;
7383;SDS011;3733;47.994;8.820;2023-12-07T14:32:37;15.20;;;7.43;;
7383;SDS011;3733;47.994;8.820;2023-12-07T14:35:03;17.40;;;7.40;;
7383;SDS011;3733;47.994;8.820;2023-12-07T14:37:29;12.33;;;6.90;;
7383;SDS011;3733;47.994;8.820;2023-12-07T14:39:55;13.50;;;8.17;;
7383;SDS011;3733;47.994;8.820;2023-12-07T14:42:20;15.37;;;8.53;;
7383;SDS011;3733;47.994;8.820;2023-12-07T14:44:46;16.03;;;8.30;;
7383;SDS011;3733;47.994;8.820;2023-12-07T14:47:13;13.90;;;8.47;;
7383;SDS011;3733;47.994;8.820;2023-12-07T14:49:38;16.47;;;9.17;;
7383;SDS011;3733;47.994;8.820;2023-12-07T14:52:05;13.53;;;9.30;;
7383;SDS011;3733;47.994;8.820;2023-12-07T14:54:31;12.10;;;7.87;;
7383;SDS011;3733;47.994;8.820;2023-12-07T14:56:56;12.97;;;9.10;;
7383;SDS011;3733;47.994;8.820;2023-12-07T14:59:22;14.27;;;8.93;;